sensor_id;sensor_type;location;lat;lon;timestamp;pressure;altitude;pressure_sealevel;temperature;humidity
83095;BME280;72967;43.674;6.976;2024-01-30T00:01:48;98408.06;;;9.80;35.58
83095;BME280;72967;43.674;6.976;2024-01-30T00:04:13;98403.81;;;9.74;35.23
83095;BME280;72967;43.674;6.976;2024-01-30T00:06:38;98402.34;;;9.63;36.52
83095;BME280;72967;43.674;6.976;2024-01-30T00:09:04;98415.03;;;9.59;36.21
83095;BME280;72967;43.674;6.976;2024-01-30T00:11:30;98395.56;;;9.42;36.68
83095;BME280;72967;43.674;6.976;2024-01-30T00:13:56;98416.00;;;9.68;35.81
83095;BME280;72967;43.674;6.976;2024-01-30T00:16:25;98411.53;;;9.72;35.90
83095;BME280;72967;43.674;6.976;2024-01-30T00:18:51;98413.44;;;9.71;35.71
83095;BME280;72967;43.674;6.976;2024-01-30T00:21:17;98402.56;;;9.66;35.95
83095;BME280;72967;43.674;6.976;2024-01-30T00:23:43;98368.09;;;9.42;36.30
83095;BME280;72967;43.674;6.976;2024-01-30T00:26:08;98408.03;;;9.66;36.24
83095;BME280;72967;43.674;6.976;2024-01-30T00:28:34;98409.53;;;9.59;36.26
83095;BME280;72967;43.674;6.976;2024-01-30T00:30:59;98408.09;;;9.48;36.47
83095;BME280;72967;43.674;6.976;2024-01-30T00:33:24;98395.97;;;9.49;36.18
83095;BME280;72967;43.674;6.976;2024-01-30T00:35:50;98409.13;;;9.52;36.03
83095;BME280;72967;43.674;6.976;2024-01-30T00:38:15;98402.81;;;9.51;36.20
83095;BME280;72967;43.674;6.976;2024-01-30T00:40:41;98407.19;;;9.52;36.23
83095;BME280;72967;43.674;6.976;2024-01-30T00:43:06;98406.44;;;9.47;36.13
83095;BME280;72967;43.674;6.976;2024-01-30T00:45:31;98397.69;;;9.45;36.00
83095;BME280;72967;43.674;6.976;2024-01-30T00:47:57;98397.28;;;9.37;36.07
83095;BME280;72967;43.674;6.976;2024-01-30T00:50:22;98413.06;;;9.46;36.60
83095;BME280;72967;43.674;6.976;2024-01-30T00:52:47;98406.13;;;9.48;36.73
83095;BME280;72967;43.674;6.976;2024-01-30T00:55:13;98407.84;;;9.44;37.17
83095;BME280;72967;43.674;6.976;2024-01-30T00:57:39;98410.59;;;9.44;36.71
83095;BME280;72967;43.674;6.976;2024-01-30T01:00:05;98412.03;;;9.42;36.55
83095;BME280;72967;43.674;6.976;2024-01-30T01:02:34;98408.47;;;9.41;36.95
83095;BME280;72967;43.674;6.976;2024-01-30T01:04:59;98409.78;;;9.44;36.63
83095;BME280;72967;43.674;6.976;2024-01-30T01:07:25;98412.03;;;9.42;37.07
83095;BME280;72967;43.674;6.976;2024-01-30T01:09:50;98413.81;;;9.32;37.25
83095;BME280;72967;43.674;6.976;2024-01-30T01:12:16;98404.75;;;9.32;37.58
83095;BME280;72967;43.674;6.976;2024-01-30T01:14:41;98414.41;;;9.29;37.85
83095;BME280;72967;43.674;6.976;2024-01-30T01:17:09;98412.69;;;9.33;37.49
83095;BME280;72967;43.674;6.976;2024-01-30T01:19:35;98412.09;;;9.18;36.82
83095;BME280;72967;43.674;6.976;2024-01-30T01:22:00;98418.84;;;9.25;37.09
83095;BME280;72967;43.674;6.976;2024-01-30T01:24:26;98410.97;;;9.19;37.07
83095;BME280;72967;43.674;6.976;2024-01-30T01:26:51;98415.06;;;9.21;37.42
83095;BME280;72967;43.674;6.976;2024-01-30T01:29:16;98423.31;;;9.21;37.28
83095;BME280;72967;43.674;6.976;2024-01-30T01:31:42;98418.19;;;9.15;37.48
83095;BME280;72967;43.674;6.976;2024-01-30T01:34:11;98423.38;;;9.16;37.34
83095;BME280;72967;43.674;6.976;2024-01-30T01:36:37;98415.16;;;9.16;37.29
83095;BME280;72967;43.674;6.976;2024-01-30T01:39:02;98414.91;;;9.13;37.20
83095;BME280;72967;43.674;6.976;2024-01-30T01:41:32;98414.34;;;9.16;37.37
83095;BME280;72967;43.674;6.976;2024-01-30T01:43:57;98419.97;;;9.06;37.18
83095;BME280;72967;43.674;6.976;2024-01-30T01:46:23;98416.41;;;9.05;37.41
83095;BME280;72967;43.674;6.976;2024-01-30T01:48:49;98412.38;;;8.98;37.48
83095;BME280;72967;43.674;6.976;2024-01-30T01:51:15;98415.13;;;8.98;37.74
83095;BME280;72967;43.674;6.976;2024-01-30T01:53:41;98402.84;;;8.95;37.45
83095;BME280;72967;43.674;6.976;2024-01-30T01:56:06;98400.97;;;8.90;38.06
83095;BME280;72967;43.674;6.976;2024-01-30T01:58:32;98398.25;;;8.90;37.76
83095;BME280;72967;43.674;6.976;2024-01-30T02:00:58;98389.75;;;8.87;37.70
83095;BME280;72967;43.674;6.976;2024-01-30T02:03:24;98390.66;;;8.82;37.36
83095;BME280;72967;43.674;6.976;2024-01-30T02:05:51;98397.56;;;8.80;37.62
83095;BME280;72967;43.674;6.976;2024-01-30T02:08:17;98392.06;;;8.80;37.22
83095;BME280;72967;43.674;6.976;2024-01-30T02:10:42;98391.53;;;8.78;37.20
83095;BME280;72967;43.674;6.976;2024-01-30T02:13:07;98392.50;;;8.87;36.69
83095;BME280;72967;43.674;6.976;2024-01-30T02:15:33;98387.16;;;8.77;37.46
83095;BME280;72967;43.674;6.976;2024-01-30T02:17:58;98383.44;;;8.68;37.66
83095;BME280;72967;43.674;6.976;2024-01-30T02:20:25;98385.16;;;8.82;37.44
83095;BME280;72967;43.674;6.976;2024-01-30T02:22:52;98381.94;;;8.99;36.60
83095;BME280;72967;43.674;6.976;2024-01-30T02:25:17;98375.97;;;8.92;37.21
83095;BME280;72967;43.674;6.976;2024-01-30T02:27:43;98380.66;;;8.73;37.52
83095;BME280;72967;43.674;6.976;2024-01-30T02:30:09;98376.50;;;8.75;37.32
83095;BME280;72967;43.674;6.976;2024-01-30T02:32:34;98381.19;;;8.75;37.55
83095;BME280;72967;43.674;6.976;2024-01-30T02:34:59;98370.69;;;8.58;38.22
83095;BME280;72967;43.674;6.976;2024-01-30T02:37:25;98377.94;;;8.49;37.89
83095;BME280;72967;43.674;6.976;2024-01-30T02:39:50;98371.19;;;8.41;38.65
83095;BME280;72967;43.674;6.976;2024-01-30T02:42:16;98361.69;;;8.34;38.65
83095;BME280;72967;43.674;6.976;2024-01-30T02:44:41;98364.47;;;8.29;38.77
83095;BME280;72967;43.674;6.976;2024-01-30T02:47:06;98324.25;;;8.00;38.95
83095;BME280;72967;43.674;6.976;2024-01-30T02:49:32;98349.81;;;8.15;39.43
83095;BME280;72967;43.674;6.976;2024-01-30T02:51:57;98366.03;;;8.11;39.68
83095;BME280;72967;43.674;6.976;2024-01-30T02:54:22;98354.94;;;8.21;38.68
83095;BME280;72967;43.674;6.976;2024-01-30T02:56:48;98361.03;;;8.18;38.86
83095;BME280;72967;43.674;6.976;2024-01-30T02:59:13;98352.41;;;8.30;38.35
83095;BME280;72967;43.674;6.976;2024-01-30T03:01:44;98355.34;;;8.38;37.89
83095;BME280;72967;43.674;6.976;2024-01-30T03:04:10;98354.66;;;8.46;38.08
83095;BME280;72967;43.674;6.976;2024-01-30T03:06:36;98355.06;;;8.59;37.04
83095;BME280;72967;43.674;6.976;2024-01-30T03:09:02;98304.75;;;8.26;37.43
83095;BME280;72967;43.674;6.976;2024-01-30T03:11:28;98357.06;;;8.53;37.53
83095;BME280;72967;43.674;6.976;2024-01-30T03:13:53;98349.78;;;8.43;37.26
83095;BME280;72967;43.674;6.976;2024-01-30T03:16:19;98357.00;;;8.58;37.39
83095;BME280;72967;43.674;6.976;2024-01-30T03:18:44;98355.97;;;8.54;37.22
83095;BME280;72967;43.674;6.976;2024-01-30T03:21:09;98357.28;;;8.57;37.28
83095;BME280;72967;43.674;6.976;2024-01-30T03:23:35;98348.91;;;8.67;36.92
83095;BME280;72967;43.674;6.976;2024-01-30T03:26:00;98348.28;;;8.75;36.75
83095;BME280;72967;43.674;6.976;2024-01-30T03:28:25;98355.06;;;8.77;36.14
83095;BME280;72967;43.674;6.976;2024-01-30T03:30:51;98355.91;;;8.78;36.55
83095;BME280;72967;43.674;6.976;2024-01-30T03:33:16;98352.88;;;8.79;36.69
83095;BME280;72967;43.674;6.976;2024-01-30T03:35:42;98356.09;;;8.81;36.41
83095;BME280;72967;43.674;6.976;2024-01-30T03:38:08;98353.97;;;8.78;36.25
83095;BME280;72967;43.674;6.976;2024-01-30T03:40:33;98360.19;;;8.65;36.91
83095;BME280;72967;43.674;6.976;2024-01-30T03:42:58;98356.59;;;8.46;37.21
83095;BME280;72967;43.674;6.976;2024-01-30T03:45:24;98357.69;;;8.45;36.88
83095;BME280;72967;43.674;6.976;2024-01-30T03:47:49;98360.16;;;8.46;36.41
83095;BME280;72967;43.674;6.976;2024-01-30T03:50:15;98356.03;;;8.49;36.45
83095;BME280;72967;43.674;6.976;2024-01-30T03:52:40;98365.56;;;8.51;36.92
83095;BME280;72967;43.674;6.976;2024-01-30T03:55:06;98366.25;;;8.62;36.11
83095;BME280;72967;43.674;6.976;2024-01-30T03:57:31;98360.84;;;8.76;35.69
83095;BME280;72967;43.674;6.976;2024-01-30T03:59:57;98362.19;;;8.78;36.09
83095;BME280;72967;43.674;6.976;2024-01-30T04:02:23;98365.09;;;8.68;35.94
83095;BME280;72967;43.674;6.976;2024-01-30T04:04:49;98366.88;;;8.78;35.84
83095;BME280;72967;43.674;6.976;2024-01-30T04:07:15;98359.94;;;8.62;36.60
83095;BME280;72967;43.674;6.976;2024-01-30T04:09:40;98372.56;;;8.63;35.90
83095;BME280;72967;43.674;6.976;2024-01-30T04:12:06;98377.44;;;8.66;36.03
83095;BME280;72967;43.674;6.976;2024-01-30T04:14:31;98376.34;;;8.67;36.58
83095;BME280;72967;43.674;6.976;2024-01-30T04:16:57;98375.28;;;8.63;35.98
83095;BME280;72967;43.674;6.976;2024-01-30T04:19:22;98373.50;;;8.53;36.55
83095;BME280;72967;43.674;6.976;2024-01-30T04:21:48;98374.91;;;8.50;36.78
83095;BME280;72967;43.674;6.976;2024-01-30T04:24:13;98367.13;;;8.58;36.95
83095;BME280;72967;43.674;6.976;2024-01-30T04:26:38;98377.44;;;8.66;36.15
83095;BME280;72967;43.674;6.976;2024-01-30T04:29:04;98376.03;;;8.68;36.01
83095;BME280;72967;43.674;6.976;2024-01-30T04:31:29;98382.41;;;8.64;36.46
83095;BME280;72967;43.674;6.976;2024-01-30T04:33:55;98368.72;;;8.64;36.23
83095;BME280;72967;43.674;6.976;2024-01-30T04:36:20;98367.53;;;8.70;36.07
83095;BME280;72967;43.674;6.976;2024-01-30T04:38:45;98373.09;;;8.65;35.86
83095;BME280;72967;43.674;6.976;2024-01-30T04:41:11;98369.94;;;8.52;36.19
83095;BME280;72967;43.674;6.976;2024-01-30T04:43:36;98371.41;;;8.45;36.85
83095;BME280;72967;43.674;6.976;2024-01-30T04:46:02;98371.59;;;8.30;37.06
83095;BME280;72967;43.674;6.976;2024-01-30T04:48:27;98366.25;;;8.15;37.43
83095;BME280;72967;43.674;6.976;2024-01-30T04:50:53;98374.72;;;8.18;36.92
83095;BME280;72967;43.674;6.976;2024-01-30T04:53:18;98373.84;;;8.23;37.14
83095;BME280;72967;43.674;6.976;2024-01-30T04:55:44;98373.31;;;8.21;37.29
83095;BME280;72967;43.674;6.976;2024-01-30T04:58:09;98364.72;;;8.32;37.15
83095;BME280;72967;43.674;6.976;2024-01-30T05:00:35;98371.25;;;8.36;36.28
83095;BME280;72967;43.674;6.976;2024-01-30T05:03:00;98370.13;;;8.37;36.28
83095;BME280;72967;43.674;6.976;2024-01-30T05:05:25;98374.19;;;8.40;36.75
83095;BME280;72967;43.674;6.976;2024-01-30T05:07:51;98367.22;;;8.52;36.66
83095;BME280;72967;43.674;6.976;2024-01-30T05:10:16;98362.25;;;8.55;36.05
83095;BME280;72967;43.674;6.976;2024-01-30T05:12:42;98372.78;;;8.66;36.91
83095;BME280;72967;43.674;6.976;2024-01-30T05:15:07;98366.53;;;8.61;36.69
83095;BME280;72967;43.674;6.976;2024-01-30T05:17:33;98368.44;;;8.41;36.71
83095;BME280;72967;43.674;6.976;2024-01-30T05:19:58;98365.56;;;8.28;38.21
83095;BME280;72967;43.674;6.976;2024-01-30T05:22:24;98367.00;;;8.20;38.12
83095;BME280;72967;43.674;6.976;2024-01-30T05:24:49;98372.66;;;8.05;37.88
83095;BME280;72967;43.674;6.976;2024-01-30T05:27:14;98380.41;;;7.98;38.30
83095;BME280;72967;43.674;6.976;2024-01-30T05:29:40;98369.69;;;8.01;38.41
83095;BME280;72967;43.674;6.976;2024-01-30T05:32:09;98378.09;;;8.10;37.94
83095;BME280;72967;43.674;6.976;2024-01-30T05:34:35;98374.13;;;8.21;38.11
83095;BME280;72967;43.674;6.976;2024-01-30T05:37:01;98380.47;;;8.17;38.26
83095;BME280;72967;43.674;6.976;2024-01-30T05:39:26;98375.00;;;8.17;38.36
83095;BME280;72967;43.674;6.976;2024-01-30T05:41:52;98384.03;;;8.17;38.99
83095;BME280;72967;43.674;6.976;2024-01-30T05:44:17;98383.56;;;8.10;38.50
83095;BME280;72967;43.674;6.976;2024-01-30T05:46:43;98377.97;;;8.20;38.67
83095;BME280;72967;43.674;6.976;2024-01-30T05:49:08;98384.31;;;8.16;38.23
83095;BME280;72967;43.674;6.976;2024-01-30T05:51:33;98387.00;;;7.97;38.64
83095;BME280;72967;43.674;6.976;2024-01-30T05:53:59;98377.81;;;8.11;38.62
83095;BME280;72967;43.674;6.976;2024-01-30T05:56:24;98381.69;;;8.29;38.31
83095;BME280;72967;43.674;6.976;2024-01-30T05:58:50;98375.16;;;8.30;38.85
83095;BME280;72967;43.674;6.976;2024-01-30T06:01:16;98374.13;;;8.45;38.42
83095;BME280;72967;43.674;6.976;2024-01-30T06:03:41;98375.38;;;8.58;38.50
83095;BME280;72967;43.674;6.976;2024-01-30T06:06:08;98376.09;;;8.44;38.46
83095;BME280;72967;43.674;6.976;2024-01-30T06:08:34;98377.06;;;8.30;38.45
83095;BME280;72967;43.674;6.976;2024-01-30T06:10:59;98377.69;;;8.22;38.76
83095;BME280;72967;43.674;6.976;2024-01-30T06:13:25;98373.25;;;8.02;39.13
83095;BME280;72967;43.674;6.976;2024-01-30T06:15:51;98385.41;;;7.91;39.39
83095;BME280;72967;43.674;6.976;2024-01-30T06:18:17;98374.84;;;8.08;39.36
83095;BME280;72967;43.674;6.976;2024-01-30T06:20:42;98373.47;;;8.29;39.88
83095;BME280;72967;43.674;6.976;2024-01-30T06:23:07;98384.22;;;8.02;40.35
83095;BME280;72967;43.674;6.976;2024-01-30T06:25:33;98385.78;;;8.08;40.02
83095;BME280;72967;43.674;6.976;2024-01-30T06:27:58;98374.78;;;8.13;39.61
83095;BME280;72967;43.674;6.976;2024-01-30T06:30:24;98381.41;;;8.07;39.39
83095;BME280;72967;43.674;6.976;2024-01-30T06:32:49;98377.25;;;8.38;38.94
83095;BME280;72967;43.674;6.976;2024-01-30T06:35:14;98381.91;;;8.38;39.13
83095;BME280;72967;43.674;6.976;2024-01-30T06:37:40;98380.09;;;8.28;38.51
83095;BME280;72967;43.674;6.976;2024-01-30T06:40:06;98386.38;;;8.29;38.70
83095;BME280;72967;43.674;6.976;2024-01-30T06:42:31;98383.50;;;8.15;38.31
83095;BME280;72967;43.674;6.976;2024-01-30T06:44:57;98377.09;;;8.01;37.50
83095;BME280;72967;43.674;6.976;2024-01-30T06:47:22;98368.44;;;7.89;38.35
83095;BME280;72967;43.674;6.976;2024-01-30T06:49:48;98392.66;;;8.05;38.52
83095;BME280;72967;43.674;6.976;2024-01-30T06:52:13;98400.00;;;8.10;38.67
83095;BME280;72967;43.674;6.976;2024-01-30T06:54:39;98395.34;;;8.10;38.25
83095;BME280;72967;43.674;6.976;2024-01-30T06:57:05;98398.84;;;8.16;37.58
83095;BME280;72967;43.674;6.976;2024-01-30T06:59:34;98402.56;;;8.25;38.19
83095;BME280;72967;43.674;6.976;2024-01-30T07:01:59;98395.56;;;8.43;37.52
83095;BME280;72967;43.674;6.976;2024-01-30T07:04:25;98404.00;;;8.46;38.47
83095;BME280;72967;43.674;6.976;2024-01-30T07:06:50;98399.06;;;8.48;38.08
83095;BME280;72967;43.674;6.976;2024-01-30T07:09:16;98400.63;;;8.55;37.88
83095;BME280;72967;43.674;6.976;2024-01-30T07:11:41;98401.78;;;8.48;38.22
83095;BME280;72967;43.674;6.976;2024-01-30T07:14:08;98412.56;;;8.64;38.17
83095;BME280;72967;43.674;6.976;2024-01-30T07:16:34;98413.00;;;8.71;38.84
83095;BME280;72967;43.674;6.976;2024-01-30T07:18:59;98411.03;;;8.76;38.23
83095;BME280;72967;43.674;6.976;2024-01-30T07:21:25;98413.41;;;8.83;38.96
83095;BME280;72967;43.674;6.976;2024-01-30T07:23:56;98415.72;;;8.94;38.33
83095;BME280;72967;43.674;6.976;2024-01-30T07:26:22;98421.44;;;8.98;37.38
83095;BME280;72967;43.674;6.976;2024-01-30T07:28:47;98422.63;;;9.11;38.13
83095;BME280;72967;43.674;6.976;2024-01-30T07:31:13;98421.66;;;9.20;38.02
83095;BME280;72967;43.674;6.976;2024-01-30T07:33:38;98411.72;;;9.24;37.34
83095;BME280;72967;43.674;6.976;2024-01-30T07:36:04;98422.09;;;9.27;37.51
83095;BME280;72967;43.674;6.976;2024-01-30T07:38:31;98418.03;;;9.25;37.58
83095;BME280;72967;43.674;6.976;2024-01-30T07:40:57;98424.56;;;9.10;37.69
83095;BME280;72967;43.674;6.976;2024-01-30T07:43:23;98423.66;;;9.15;37.11
83095;BME280;72967;43.674;6.976;2024-01-30T07:45:48;98429.38;;;9.18;36.83
83095;BME280;72967;43.674;6.976;2024-01-30T07:48:14;98422.78;;;9.01;36.68
83095;BME280;72967;43.674;6.976;2024-01-30T07:50:39;98434.19;;;9.08;36.40
83095;BME280;72967;43.674;6.976;2024-01-30T07:53:04;98433.97;;;9.23;36.01
83095;BME280;72967;43.674;6.976;2024-01-30T07:56:06;98421.72;;;9.34;36.05
83095;BME280;72967;43.674;6.976;2024-01-30T07:58:31;98427.88;;;9.45;36.06
83095;BME280;72967;43.674;6.976;2024-01-30T08:00:57;98426.09;;;9.54;35.86
83095;BME280;72967;43.674;6.976;2024-01-30T08:03:23;98433.81;;;9.52;35.40
83095;BME280;72967;43.674;6.976;2024-01-30T08:05:49;98427.06;;;9.63;35.52
83095;BME280;72967;43.674;6.976;2024-01-30T08:08:14;98421.97;;;9.70;34.92
83095;BME280;72967;43.674;6.976;2024-01-30T08:10:40;98433.28;;;9.68;34.82
83095;BME280;72967;43.674;6.976;2024-01-30T08:13:05;98437.78;;;9.78;34.88
83095;BME280;72967;43.674;6.976;2024-01-30T08:15:31;98437.63;;;9.88;34.31
83095;BME280;72967;43.674;6.976;2024-01-30T08:17:57;98443.94;;;9.89;35.04
83095;BME280;72967;43.674;6.976;2024-01-30T08:20:24;98441.31;;;9.97;35.21
83095;BME280;72967;43.674;6.976;2024-01-30T08:22:50;98434.69;;;9.98;35.13
83095;BME280;72967;43.674;6.976;2024-01-30T08:25:16;98436.81;;;10.34;35.22
83095;BME280;72967;43.674;6.976;2024-01-30T08:27:41;98436.53;;;10.49;35.26
83095;BME280;72967;43.674;6.976;2024-01-30T08:30:07;98432.78;;;10.45;35.90
83095;BME280;72967;43.674;6.976;2024-01-30T08:32:33;98432.78;;;10.45;37.47
83095;BME280;72967;43.674;6.976;2024-01-30T08:34:59;98432.47;;;10.46;37.01
83095;BME280;72967;43.674;6.976;2024-01-30T08:37:24;98438.06;;;10.55;37.27
83095;BME280;72967;43.674;6.976;2024-01-30T08:39:50;98431.84;;;10.63;36.86
83095;BME280;72967;43.674;6.976;2024-01-30T08:42:15;98432.78;;;10.72;37.14
83095;BME280;72967;43.674;6.976;2024-01-30T08:44:43;98428.75;;;11.05;36.69
83095;BME280;72967;43.674;6.976;2024-01-30T08:47:08;98432.16;;;11.25;35.85
83095;BME280;72967;43.674;6.976;2024-01-30T08:49:34;98433.44;;;11.05;34.88
83095;BME280;72967;43.674;6.976;2024-01-30T08:51:59;98435.06;;;11.06;35.02
83095;BME280;72967;43.674;6.976;2024-01-30T08:54:25;98436.72;;;11.07;35.42
83095;BME280;72967;43.674;6.976;2024-01-30T08:56:50;98439.06;;;11.14;35.11
83095;BME280;72967;43.674;6.976;2024-01-30T08:59:17;98444.56;;;11.14;34.98
83095;BME280;72967;43.674;6.976;2024-01-30T09:01:42;98434.66;;;11.13;34.87
83095;BME280;72967;43.674;6.976;2024-01-30T09:04:08;98447.91;;;11.24;35.05
83095;BME280;72967;43.674;6.976;2024-01-30T09:06:33;98450.31;;;11.26;35.90
83095;BME280;72967;43.674;6.976;2024-01-30T09:08:59;98448.50;;;11.21;38.83
83095;BME280;72967;43.674;6.976;2024-01-30T09:11:24;98455.59;;;11.36;38.88
83095;BME280;72967;43.674;6.976;2024-01-30T09:13:49;98453.34;;;11.38;39.36
83095;BME280;72967;43.674;6.976;2024-01-30T09:16:15;98460.88;;;11.46;39.05
83095;BME280;72967;43.674;6.976;2024-01-30T09:18:41;98456.56;;;11.54;39.27
83095;BME280;72967;43.674;6.976;2024-01-30T09:21:07;98453.69;;;11.59;39.37
83095;BME280;72967;43.674;6.976;2024-01-30T09:23:32;98457.47;;;11.63;39.85
83095;BME280;72967;43.674;6.976;2024-01-30T09:25:58;98449.06;;;11.68;40.24
83095;BME280;72967;43.674;6.976;2024-01-30T09:28:24;98441.22;;;11.61;40.07
83095;BME280;72967;43.674;6.976;2024-01-30T09:30:49;98438.81;;;11.60;41.02
83095;BME280;72967;43.674;6.976;2024-01-30T09:33:15;98460.19;;;11.76;41.10
83095;BME280;72967;43.674;6.976;2024-01-30T09:35:40;98463.16;;;11.80;41.54
83095;BME280;72967;43.674;6.976;2024-01-30T09:38:06;98459.69;;;11.74;42.03
83095;BME280;72967;43.674;6.976;2024-01-30T09:40:31;98461.38;;;11.84;41.64
83095;BME280;72967;43.674;6.976;2024-01-30T09:42:58;98469.53;;;11.89;41.35
83095;BME280;72967;43.674;6.976;2024-01-30T09:45:25;98469.53;;;11.89;40.92
83095;BME280;72967;43.674;6.976;2024-01-30T09:47:51;98462.78;;;11.95;40.99
83095;BME280;72967;43.674;6.976;2024-01-30T09:50:17;98444.41;;;11.90;40.58
83095;BME280;72967;43.674;6.976;2024-01-30T09:52:47;98464.16;;;12.06;40.20
83095;BME280;72967;43.674;6.976;2024-01-30T09:55:13;98476.78;;;12.07;40.15
83095;BME280;72967;43.674;6.976;2024-01-30T09:57:38;98471.38;;;12.24;40.56
83095;BME280;72967;43.674;6.976;2024-01-30T10:00:05;98472.78;;;12.13;41.36
83095;BME280;72967;43.674;6.976;2024-01-30T10:02:34;98472.34;;;12.20;41.15
83095;BME280;72967;43.674;6.976;2024-01-30T10:05:00;98469.44;;;12.25;41.22
83095;BME280;72967;43.674;6.976;2024-01-30T10:07:26;98470.94;;;12.31;41.47
83095;BME280;72967;43.674;6.976;2024-01-30T10:09:53;98477.00;;;12.42;41.41
83095;BME280;72967;43.674;6.976;2024-01-30T10:12:19;98475.88;;;12.43;41.39
83095;BME280;72967;43.674;6.976;2024-01-30T10:14:44;98472.47;;;12.46;40.72
83095;BME280;72967;43.674;6.976;2024-01-30T10:17:11;98473.84;;;12.57;40.34
83095;BME280;72967;43.674;6.976;2024-01-30T10:19:40;98465.69;;;12.52;39.71
83095;BME280;72967;43.674;6.976;2024-01-30T10:22:06;98471.72;;;12.54;39.78
83095;BME280;72967;43.674;6.976;2024-01-30T10:24:33;98464.88;;;12.51;39.58
83095;BME280;72967;43.674;6.976;2024-01-30T10:26:59;98475.63;;;12.53;38.79
83095;BME280;72967;43.674;6.976;2024-01-30T10:29:25;98470.56;;;12.55;38.77
83095;BME280;72967;43.674;6.976;2024-01-30T10:32:04;98467.38;;;12.61;38.70
83095;BME280;72967;43.674;6.976;2024-01-30T10:34:30;98461.41;;;12.68;38.43
83095;BME280;72967;43.674;6.976;2024-01-30T10:37:08;98460.28;;;12.69;37.90
83095;BME280;72967;43.674;6.976;2024-01-30T10:39:44;98382.53;;;12.27;38.59
83095;BME280;72967;43.674;6.976;2024-01-30T10:42:17;98464.03;;;12.82;38.98
83095;BME280;72967;43.674;6.976;2024-01-30T10:45:13;98460.94;;;12.74;38.71
83095;BME280;72967;43.674;6.976;2024-01-30T10:47:53;98454.94;;;12.81;40.78
83095;BME280;72967;43.674;6.976;2024-01-30T10:50:20;98452.03;;;12.86;41.29
83095;BME280;72967;43.674;6.976;2024-01-30T10:52:46;98446.38;;;12.91;40.30
83095;BME280;72967;43.674;6.976;2024-01-30T10:55:13;98439.88;;;12.87;39.47
83095;BME280;72967;43.674;6.976;2024-01-30T10:57:40;98433.69;;;12.90;39.26
83095;BME280;72967;43.674;6.976;2024-01-30T11:00:10;98434.34;;;12.87;42.68
83095;BME280;72967;43.674;6.976;2024-01-30T11:02:39;98425.56;;;12.85;43.43
83095;BME280;72967;43.674;6.976;2024-01-30T11:05:05;98432.72;;;12.86;43.46
83095;BME280;72967;43.674;6.976;2024-01-30T11:07:31;98432.41;;;12.88;44.98
83095;BME280;72967;43.674;6.976;2024-01-30T11:10:02;98429.84;;;13.00;44.54
83095;BME280;72967;43.674;6.976;2024-01-30T11:12:29;98410.69;;;12.95;43.47
83095;BME280;72967;43.674;6.976;2024-01-30T11:15:28;98428.53;;;13.06;44.21
83095;BME280;72967;43.674;6.976;2024-01-30T11:17:53;98427.25;;;13.03;43.61
83095;BME280;72967;43.674;6.976;2024-01-30T11:20:26;98432.94;;;13.07;43.22
83095;BME280;72967;43.674;6.976;2024-01-30T11:22:53;98429.84;;;13.08;41.76
83095;BME280;72967;43.674;6.976;2024-01-30T11:25:21;98422.22;;;13.05;41.12
83095;BME280;72967;43.674;6.976;2024-01-30T11:27:53;98425.00;;;13.05;41.71
83095;BME280;72967;43.674;6.976;2024-01-30T11:30:27;98420.44;;;13.09;42.14
83095;BME280;72967;43.674;6.976;2024-01-30T11:35:35;98416.44;;;13.24;41.41
83095;BME280;72967;43.674;6.976;2024-01-30T11:38:02;98420.31;;;13.32;40.30
83095;BME280;72967;43.674;6.976;2024-01-30T11:40:29;98418.56;;;13.36;38.11
83095;BME280;72967;43.674;6.976;2024-01-30T11:42:55;98416.59;;;13.28;38.14
83095;BME280;72967;43.674;6.976;2024-01-30T11:45:21;98421.28;;;13.27;40.89
83095;BME280;72967;43.674;6.976;2024-01-30T11:47:47;98413.16;;;13.22;41.81
83095;BME280;72967;43.674;6.976;2024-01-30T11:50:13;98401.00;;;13.32;42.07
83095;BME280;72967;43.674;6.976;2024-01-30T11:52:39;98398.06;;;13.28;42.56
83095;BME280;72967;43.674;6.976;2024-01-30T11:55:05;98398.41;;;13.44;42.65
83095;BME280;72967;43.674;6.976;2024-01-30T11:57:30;98398.06;;;13.54;43.67
83095;BME280;72967;43.674;6.976;2024-01-30T11:59:56;98395.16;;;13.68;43.97
83095;BME280;72967;43.674;6.976;2024-01-30T12:02:21;98391.41;;;13.55;44.73
83095;BME280;72967;43.674;6.976;2024-01-30T12:04:47;98385.69;;;13.69;44.15
83095;BME280;72967;43.674;6.976;2024-01-30T12:07:12;98394.50;;;13.71;44.33
83095;BME280;72967;43.674;6.976;2024-01-30T12:09:41;98385.38;;;13.70;45.88
83095;BME280;72967;43.674;6.976;2024-01-30T12:12:07;98388.78;;;13.93;45.91
83095;BME280;72967;43.674;6.976;2024-01-30T12:14:38;98389.38;;;14.07;46.23
83095;BME280;72967;43.674;6.976;2024-01-30T12:17:04;98384.03;;;14.02;47.07
83095;BME280;72967;43.674;6.976;2024-01-30T12:19:30;98375.25;;;14.09;47.32
83095;BME280;72967;43.674;6.976;2024-01-30T12:21:56;98374.59;;;14.03;46.62
83095;BME280;72967;43.674;6.976;2024-01-30T12:24:24;98374.31;;;13.87;48.68
83095;BME280;72967;43.674;6.976;2024-01-30T12:26:50;98381.91;;;13.99;49.77
83095;BME280;72967;43.674;6.976;2024-01-30T12:29:16;98372.38;;;13.88;49.11
83095;BME280;72967;43.674;6.976;2024-01-30T12:31:42;98368.44;;;13.97;49.15
83095;BME280;72967;43.674;6.976;2024-01-30T12:34:07;98347.31;;;13.93;48.85
83095;BME280;72967;43.674;6.976;2024-01-30T12:36:34;98360.13;;;13.89;49.41
83095;BME280;72967;43.674;6.976;2024-01-30T12:39:00;98354.16;;;13.87;49.68
83095;BME280;72967;43.674;6.976;2024-01-30T12:41:26;98356.72;;;13.92;49.61
83095;BME280;72967;43.674;6.976;2024-01-30T12:43:55;98349.25;;;13.92;49.17
83095;BME280;72967;43.674;6.976;2024-01-30T12:46:27;98340.19;;;13.75;50.10
83095;BME280;72967;43.674;6.976;2024-01-30T12:48:53;98347.78;;;13.95;49.62
83095;BME280;72967;43.674;6.976;2024-01-30T12:51:19;98340.78;;;13.89;50.73
83095;BME280;72967;43.674;6.976;2024-01-30T12:53:44;98342.31;;;14.24;49.17
83095;BME280;72967;43.674;6.976;2024-01-30T12:56:11;98337.56;;;14.33;47.61
83095;BME280;72967;43.674;6.976;2024-01-30T12:58:37;98338.38;;;14.34;49.07
83095;BME280;72967;43.674;6.976;2024-01-30T13:01:02;98329.91;;;14.39;49.05
83095;BME280;72967;43.674;6.976;2024-01-30T13:03:28;98332.94;;;14.08;50.73
83095;BME280;72967;43.674;6.976;2024-01-30T13:05:54;98331.38;;;13.81;52.04